Time,TemperatureF,DewpointF,PressureIn,WindDirection,WindDirectionDegrees,WindSpeedMPH,WindSpeedGustMPH,Humidity,HourlyPrecipIn,Conditions,Clouds,dailyrainin,SoftwareType,DateUTC
2013-08-30 00:54:00,77.0,73.0,30.04,WNW,298,0.0,1.0,88,0.00,,,0.00,,2013-08-30 04:54:00,
2013-08-30 01:04:00,77.0,73.0,30.04,WNW,298,0.0,1.0,88,0.00,,,0.00,,2013-08-30 05:04:00,
2013-08-30 01:23:00,77.0,74.0,30.04,WNW,298,0.0,1.0,89,0.00,,,0.00,,2013-08-30 05:23:00,
2013-08-30 01:34:00,77.0,74.0,30.04,WNW,298,0.0,1.0,89,0.00,,,0.00,,2013-08-30 05:34:00,
2013-08-30 01:52:00,76.0,73.0,30.04,WNW,298,0.0,0.0,90,0.00,,,0.00,,2013-08-30 05:52:00,
2013-08-30 02:02:00,76.0,73.0,30.04,WNW,298,0.0,0.0,90,0.00,,,0.00,,2013-08-30 06:02:00,
2013-08-30 02:12:00,76.0,73.0,30.04,WNW,298,0.0,0.0,90,0.00,,,0.00,,2013-08-30 06:12:00,
2013-08-30 02:22:00,76.0,73.0,30.03,WNW,298,0.0,0.0,90,0.00,,,0.00,,2013-08-30 06:22:00,
2013-08-30 02:32:00,76.0,73.0,30.03,WNW,298,0.0,0.0,90,0.00,,,0.00,,2013-08-30 06:32:00,
2013-08-30 02:53:00,75.0,72.0,30.03,WNW,298,0.0,0.0,90,0.00,,,0.00,,2013-08-30 06:53:00,
2013-08-30 03:02:00,75.0,72.0,30.03,WNW,298,0.0,0.0,90,0.00,,,0.00,,2013-08-30 07:02:00,
2013-08-30 03:12:00,75.0,72.0,30.03,WNW,298,0.0,0.0,90,0.00,,,0.00,,2013-08-30 07:12:00,
2013-08-30 03:22:00,75.0,73.0,30.03,WNW,298,0.0,0.0,92,0.00,,,0.00,,2013-08-30 07:22:00,
2013-08-30 03:32:00,75.0,73.0,30.03,WNW,298,0.0,0.0,92,0.00,,,0.00,,2013-08-30 07:32:00,
2013-08-30 03:53:00,74.0,72.0,30.03,WNW,298,0.0,0.0,93,0.00,,,0.00,,2013-08-30 07:53:00,
2013-08-30 04:03:00,74.0,72.0,30.03,WNW,298,0.0,0.0,93,0.00,,,0.00,,2013-08-30 08:03:00,
2013-08-30 04:11:00,74.0,72.0,30.03,WNW,298,0.0,0.0,93,0.00,,,0.00,,2013-08-30 08:11:00,
2013-08-30 04:22:00,74.0,72.0,30.03,WNW,298,0.0,0.0,93,0.00,,,0.00,,2013-08-30 08:22:00,
2013-08-30 04:32:00,74.0,72.0,30.03,WNW,298,0.0,0.0,93,0.00,,,0.00,,2013-08-30 08:32:00,
2013-08-30 04:43:00,74.0,72.0,30.03,WNW,298,0.0,0.0,93,0.00,,,0.00,,2013-08-30 08:43:00,
2013-08-30 04:52:00,74.0,72.0,30.03,WNW,298,0.0,0.0,94,0.00,,,0.00,,2013-08-30 08:52:00,
2013-08-30 05:02:00,74.0,72.0,30.03,WNW,298,0.0,0.0,94,0.00,,,0.00,,2013-08-30 09:02:00,
2013-08-30 05:12:00,74.0,72.0,30.03,WNW,298,0.0,0.0,94,0.00,,,0.00,,2013-08-30 09:12:00,
2013-08-30 05:22:00,74.0,72.0,30.03,WNW,298,0.0,0.0,94,0.00,,,0.00,,2013-08-30 09:22:00,
2013-08-30 05:33:00,74.0,72.0,30.03,WNW,298,0.0,0.0,94,0.00,,,0.00,,2013-08-30 09:33:00,
2013-08-30 05:44:00,74.0,72.0,30.03,WNW,298,0.0,0.0,94,0.00,,,0.00,,2013-08-30 09:44:00,
2013-08-30 05:53:00,73.0,71.0,30.04,WNW,298,0.0,0.0,95,0.00,,,0.00,,2013-08-30 09:53:00,
2013-08-30 06:03:00,73.0,71.0,30.04,WNW,298,0.0,0.0,95,0.00,,,0.00,,2013-08-30 10:03:00,
2013-08-30 06:13:00,73.0,71.0,30.04,WNW,298,0.0,0.0,95,0.00,,,0.00,,2013-08-30 10:13:00,
2013-08-30 06:23:00,73.0,71.0,30.04,WNW,298,0.0,0.0,95,0.00,,,0.00,,2013-08-30 10:23:00,
2013-08-30 06:32:00,73.0,71.0,30.04,WNW,298,0.0,0.0,95,0.00,,,0.00,,2013-08-30 10:32:00,
2013-08-30 06:43:00,73.0,71.0,30.04,WNW,298,0.0,0.0,95,0.00,,,0.00,,2013-08-30 10:43:00,
2013-08-30 06:53:00,73.0,71.0,30.05,WNW,298,0.0,0.0,95,0.00,,,0.00,,2013-08-30 10:53:00,
2013-08-30 07:03:00,73.0,71.0,30.05,WNW,298,0.0,0.0,95,0.00,,,0.00,,2013-08-30 11:03:00,
2013-08-30 07:12:00,73.0,71.0,30.05,WNW,298,0.0,0.0,95,0.00,,,0.00,,2013-08-30 11:12:00,
2013-08-30 07:22:00,73.0,72.0,30.06,WNW,298,0.0,0.0,96,0.00,,,0.00,,2013-08-30 11:22:00,
2013-08-30 07:33:00,73.0,72.0,30.06,WNW,298,0.0,0.0,96,0.00,,,0.00,,2013-08-30 11:33:00,
2013-08-30 07:52:00,72.0,71.0,30.07,WNW,298,0.0,0.0,96,0.00,,,0.00,,2013-08-30 11:52:00,
2013-08-30 08:01:00,72.0,71.0,30.07,WNW,298,0.0,0.0,96,0.00,,,0.00,,2013-08-30 12:01:00,
2013-08-30 08:12:00,72.0,71.0,30.07,WNW,298,0.0,0.0,96,0.00,,,0.00,,2013-08-30 12:12:00,
2013-08-30 08:21:00,72.0,71.0,30.07,WNW,298,0.0,0.0,96,0.00,,,0.00,,2013-08-30 12:21:00,
2013-08-30 08:32:00,72.0,71.0,30.07,WNW,298,0.0,0.0,96,0.00,,,0.00,,2013-08-30 12:32:00,
2013-08-30 09:22:00,73.0,72.0,30.10,SSE,161,1.0,3.0,96,0.00,,,0.00,,2013-08-30 13:22:00,
2013-08-30 09:32:00,73.0,72.0,30.10,SSE,161,1.0,3.0,96,0.00,,,0.00,,2013-08-30 13:32:00,
2013-08-30 09:52:00,74.0,72.0,30.10,ESE,119,1.0,5.0,94,0.00,,,0.00,,2013-08-30 13:52:00,
2013-08-30 10:02:00,74.0,72.0,30.10,ESE,119,1.0,5.0,94,0.00,,,0.00,,2013-08-30 14:02:00,
2013-08-30 10:22:00,75.0,73.0,30.10,ESE,103,1.0,6.0,93,0.00,,,0.00,,2013-08-30 14:22:00,
2013-08-30 10:32:00,75.0,73.0,30.10,ESE,103,1.0,6.0,93,0.00,,,0.00,,2013-08-30 14:32:00,
2013-08-30 10:52:00,75.0,73.0,30.10,ESE,103,1.0,6.0,93,0.00,,,0.00,,2013-08-30 14:52:00,
2013-08-30 11:02:00,75.0,73.0,30.10,ESE,103,1.0,6.0,93,0.00,,,0.00,,2013-08-30 15:02:00,
2013-08-30 11:22:00,76.0,73.0,30.11,SE,124,0.0,3.0,90,0.00,,,0.00,,2013-08-30 15:22:00,
2013-08-30 11:33:00,76.0,73.0,30.11,SE,124,0.0,3.0,90,0.00,,,0.00,,2013-08-30 15:33:00,
2013-08-30 11:43:00,76.0,73.0,30.11,SE,124,0.0,3.0,90,0.00,,,0.00,,2013-08-30 15:43:00,
2013-08-30 11:54:00,77.0,73.0,30.11,ESE,109,0.0,2.0,88,0.00,,,0.00,,2013-08-30 15:54:00,
2013-08-30 12:05:00,77.0,73.0,30.11,ESE,109,0.0,2.0,88,0.00,,,0.00,,2013-08-30 16:05:00,
2013-08-30 12:13:00,77.0,73.0,30.11,ESE,109,0.0,2.0,88,0.00,,,0.00,,2013-08-30 16:13:00,
2013-08-30 12:25:00,77.0,73.0,30.11,ESE,109,0.0,2.0,88,0.00,,,0.00,,2013-08-30 16:25:00,
2013-08-30 15:22:00,81.0,75.0,30.07,East,95,0.0,2.0,81,0.00,,,0.00,,2013-08-30 19:22:00,
2013-08-30 15:32:00,81.0,75.0,30.07,East,95,0.0,2.0,81,0.00,,,0.00,,2013-08-30 19:32:00,
2013-08-30 15:53:00,81.0,75.0,30.06,East,94,0.0,2.0,83,0.00,,,0.00,,2013-08-30 19:53:00,
2013-08-30 16:03:00,81.0,75.0,30.06,East,94,0.0,2.0,83,0.00,,,0.00,,2013-08-30 20:03:00,
2013-08-30 16:12:00,81.0,75.0,30.06,East,94,0.0,2.0,83,0.00,,,0.00,,2013-08-30 20:12:00,
2013-08-30 16:22:00,81.0,75.0,30.05,East,96,0.0,2.0,81,0.00,,,0.00,,2013-08-30 20:22:00,
2013-08-30 16:32:00,81.0,75.0,30.05,East,96,0.0,2.0,81,0.00,,,0.00,,2013-08-30 20:32:00,
2013-08-30 16:52:00,82.0,75.0,30.03,East,87,0.0,3.0,79,0.00,,,0.00,,2013-08-30 20:52:00,
2013-08-30 17:02:00,82.0,75.0,30.03,East,87,0.0,3.0,79,0.00,,,0.00,,2013-08-30 21:02:00,
2013-08-30 17:12:00,82.0,75.0,30.03,East,87,0.0,3.0,79,0.00,,,0.00,,2013-08-30 21:12:00,
2013-08-30 17:22:00,82.0,75.0,30.04,East,98,0.0,0.0,80,0.00,,,0.00,,2013-08-30 21:22:00,
2013-08-30 17:34:00,82.0,75.0,30.04,East,98,0.0,0.0,80,0.00,,,0.00,,2013-08-30 21:34:00,
2013-08-30 17:55:00,83.0,75.0,30.03,East,98,0.0,0.0,76,0.00,,,0.00,,2013-08-30 21:55:00,
2013-08-30 18:04:00,83.0,75.0,30.03,East,98,0.0,0.0,76,0.00,,,0.00,,2013-08-30 22:04:00,
2013-08-30 18:13:00,83.0,75.0,30.03,East,98,0.0,0.0,76,0.00,,,0.00,,2013-08-30 22:13:00,
2013-08-30 18:24:00,82.0,75.0,30.01,East,98,0.0,0.0,79,0.00,,,0.00,,2013-08-30 22:24:00,
2013-08-30 18:33:00,82.0,75.0,30.01,East,98,0.0,0.0,79,0.00,,,0.00,,2013-08-30 22:33:00,
2013-08-30 18:54:00,82.0,76.0,30.02,East,98,0.0,0.0,81,0.00,,,0.00,,2013-08-30 22:54:00,
2013-08-30 19:03:00,82.0,76.0,30.02,East,98,0.0,0.0,81,0.00,,,0.00,,2013-08-30 23:03:00,
2013-08-30 19:12:00,82.0,76.0,30.02,East,98,0.0,0.0,81,0.00,,,0.00,,2013-08-30 23:12:00,
2013-08-30 19:22:00,82.0,76.0,30.02,East,98,0.0,0.0,81,0.00,,,0.00,,2013-08-30 23:22:00,
2013-08-30 19:53:00,80.0,76.0,30.02,East,98,0.0,0.0,87,0.00,,,0.00,,2013-08-30 23:53:00,
2013-08-30 20:02:00,80.0,76.0,30.02,East,98,0.0,0.0,87,0.00,,,0.00,,2013-08-31 00:02:00,
2013-08-30 20:11:00,80.0,76.0,30.02,East,98,0.0,0.0,87,0.00,,,0.00,,2013-08-31 00:11:00,
2013-08-30 20:22:00,79.0,75.0,30.02,East,98,0.0,0.0,88,0.00,,,0.00,,2013-08-31 00:22:00,
2013-08-30 20:32:00,79.0,75.0,30.02,East,98,0.0,0.0,88,0.00,,,0.00,,2013-08-31 00:32:00,
2013-08-30 20:42:00,79.0,75.0,30.02,East,98,0.0,0.0,88,0.00,,,0.00,,2013-08-31 00:42:00,
2013-08-30 20:52:00,78.0,75.0,30.02,East,98,0.0,0.0,90,0.00,,,0.00,,2013-08-31 00:52:00,
2013-08-30 21:01:00,78.0,75.0,30.02,East,98,0.0,0.0,90,0.00,,,0.00,,2013-08-31 01:01:00,
2013-08-30 21:11:00,78.0,75.0,30.02,East,98,0.0,0.0,90,0.00,,,0.00,,2013-08-31 01:11:00,
2013-08-30 21:22:00,77.0,74.0,30.03,East,98,0.0,0.0,91,0.00,,,0.00,,2013-08-31 01:22:00,
2013-08-30 21:32:00,77.0,74.0,30.03,East,98,0.0,0.0,91,0.00,,,0.00,,2013-08-31 01:32:00,
2013-08-30 21:42:00,77.0,74.0,30.03,East,98,0.0,0.0,91,0.00,,,0.00,,2013-08-31 01:42:00,
2013-08-30 21:52:00,77.0,75.0,30.04,East,98,0.0,0.0,93,0.00,,,0.00,,2013-08-31 01:52:00,
2013-08-30 22:02:00,77.0,75.0,30.04,East,98,0.0,0.0,93,0.00,,,0.00,,2013-08-31 02:02:00,
2013-08-30 22:12:00,77.0,75.0,30.04,East,98,0.0,0.0,93,0.00,,,0.00,,2013-08-31 02:12:00,
2013-08-30 22:22:00,76.0,74.0,30.03,East,98,0.0,1.0,94,0.00,,,0.00,,2013-08-31 02:22:00,
2013-08-30 22:32:00,76.0,74.0,30.03,East,98,0.0,1.0,94,0.00,,,0.00,,2013-08-31 02:32:00,
2013-08-30 22:42:00,76.0,74.0,30.03,East,98,0.0,1.0,94,0.00,,,0.00,,2013-08-31 02:42:00,
2013-08-30 22:52:00,76.0,74.0,30.04,East,98,0.0,1.0,94,0.00,,,0.00,,2013-08-31 02:52:00,
2013-08-30 23:02:00,76.0,74.0,30.04,East,98,0.0,1.0,94,0.00,,,0.00,,2013-08-31 03:02:00,
2013-08-30 23:12:00,76.0,74.0,30.04,East,98,0.0,1.0,94,0.00,,,0.00,,2013-08-31 03:12:00,
2013-08-30 23:22:00,76.0,74.0,30.05,East,98,0.0,0.0,94,0.00,,,0.00,,2013-08-31 03:22:00,
2013-08-30 23:34:00,76.0,74.0,30.05,East,98,0.0,0.0,94,0.00,,,0.00,,2013-08-31 03:34:00,
2013-08-30 23:54:00,75.0,73.0,30.04,East,98,0.0,0.0,95,0.00,,,0.00,,2013-08-31 03:54:00,